Time;durP1;ratioP1;P1;durP2;ratioP2;P2;SDS_P1;SDS_P2;PMS_P1;PMS_P2;Temp;Humidity;BMP_temperature;BMP_pressure;BME280_temperature;BME280_humidity;BME280_pressure;Samples;Min_cycle;Max_cycle;Signal;HPM_P1;HPM_P2
2022/01/05 00:00:55;;;;;;;8.65;6.95;;;3.10;99.90;;;;;;4995342;28;20168;-81
2022/01/05 00:03:21;;;;;;;12.80;8.50;;;3.10;99.90;;;;;;4995353;28;20033;-82
2022/01/05 00:05:47;;;;;;;8.05;6.50;;;3.10;99.90;;;;;;4995618;28;20536;-82
2022/01/05 00:08:14;;;;;;;9.32;6.32;;;3.10;99.90;;;;;;4979389;28;20022;-81
2022/01/05 00:10:40;;;;;;;12.10;8.93;;;3.10;99.90;;;;;;4979419;28;20120;-81
2022/01/05 00:13:05;;;;;;;12.98;8.35;;;3.10;99.90;;;;;;4979340;28;20485;-81
2022/01/05 00:15:31;;;;;;;8.93;6.55;;;3.20;99.90;;;;;;4979266;28;20040;-81
2022/01/05 00:17:57;;;;;;;9.30;6.78;;;3.20;99.90;;;;;;4979316;28;20065;-81
2022/01/05 00:20:24;;;;;;;8.93;7.05;;;3.20;99.90;;;;;;4979255;28;20038;-82
2022/01/05 00:22:49;;;;;;;12.60;8.88;;;3.20;99.90;;;;;;4979329;28;20037;-82
2022/01/05 00:25:15;;;;;;;12.85;8.65;;;3.20;99.90;;;;;;5012918;28;20030;-82
2022/01/05 00:27:41;;;;;;;11.82;8.15;;;3.20;99.90;;;;;;4979449;28;20034;-81
2022/01/05 00:30:08;;;;;;;12.18;8.20;;;3.20;99.90;;;;;;4995591;28;20045;-82
2022/01/05 00:32:33;;;;;;;10.98;8.70;;;3.20;99.90;;;;;;4978932;28;20426;-86
2022/01/05 00:34:59;;;;;;;15.48;10.40;;;3.20;99.90;;;;;;4995975;28;20037;-87
2022/01/05 00:37:25;;;;;;;11.80;10.23;;;3.20;99.90;;;;;;4979986;28;20469;-86
2022/01/05 00:39:51;;;;;;;10.98;9.77;;;3.20;99.90;;;;;;4982438;28;20124;-86
2022/01/05 00:42:16;;;;;;;13.63;9.98;;;3.20;99.90;;;;;;4983014;28;20037;-86
2022/01/05 00:44:42;;;;;;;12.80;9.35;;;3.20;99.90;;;;;;5015222;28;20038;-86
2022/01/05 00:47:08;;;;;;;12.82;10.32;;;3.20;99.90;;;;;;4999398;28;20508;-86
2022/01/05 00:49:33;;;;;;;11.13;9.35;;;3.20;99.90;;;;;;4999269;28;20401;-85
2022/01/05 00:51:59;;;;;;;9.95;8.95;;;3.30;99.90;;;;;;4982813;28;20092;-86
2022/01/05 00:54:25;;;;;;;12.40;9.38;;;3.20;99.90;;;;;;5016357;28;20705;-86
2022/01/05 00:56:50;;;;;;;11.18;8.10;;;3.30;99.90;;;;;;4982752;28;20065;-86
2022/01/05 00:59:16;;;;;;;14.52;9.60;;;3.30;99.90;;;;;;4982743;28;20030;-86
2022/01/05 01:01:42;;;;;;;9.77;8.38;;;3.30;99.90;;;;;;4999016;28;20481;-86
2022/01/05 01:04:08;;;;;;;10.90;7.32;;;3.30;99.90;;;;;;5016494;28;20096;-86
2022/01/05 01:06:33;;;;;;;8.38;6.82;;;3.30;99.90;;;;;;4982500;28;20390;-86
2022/01/05 01:08:59;;;;;;;11.10;8.13;;;3.20;99.90;;;;;;4982845;28;20041;-86
2022/01/05 01:11:25;;;;;;;12.00;7.70;;;3.30;99.90;;;;;;5016562;28;20022;-86
2022/01/05 01:13:51;;;;;;;53.95;21.52;;;3.30;99.90;;;;;;4998791;28;20026;-86
2022/01/05 01:16:19;;;;;;;16.10;9.70;;;3.20;99.90;;;;;;4999097;28;20040;-87
2022/01/05 01:18:45;;;;;;;14.35;9.13;;;3.20;99.90;;;;;;4998563;28;20076;-86
2022/01/05 01:21:11;;;;;;;9.65;8.02;;;3.20;99.90;;;;;;4998754;28;20080;-86
2022/01/05 01:23:37;;;;;;;17.67;9.75;;;3.30;99.90;;;;;;5016201;28;20037;-85
2022/01/05 01:26:03;;;;;;;13.77;8.43;;;3.30;99.90;;;;;;5016175;28;20063;-86
2022/01/05 01:28:29;;;;;;;15.80;12.05;;;3.30;99.90;;;;;;4982411;28;20165;-86
2022/01/05 01:30:55;;;;;;;12.73;9.55;;;3.30;99.90;;;;;;4998465;28;20138;-86
2022/01/05 01:33:21;;;;;;;14.48;11.43;;;3.30;99.90;;;;;;4981768;28;20029;-86
2022/01/05 01:35:46;;;;;;;15.95;12.25;;;3.30;99.90;;;;;;4998648;28;20040;-86
2022/01/05 01:38:12;;;;;;;22.15;15.45;;;3.30;99.90;;;;;;4981909;28;20030;-86
2022/01/05 01:40:38;;;;;;;35.80;17.05;;;3.30;99.90;;;;;;4982501;28;20034;-86
2022/01/05 01:43:04;;;;;;;32.92;17.80;;;3.30;99.90;;;;;;5015721;28;20042;-86
2022/01/05 01:45:30;;;;;;;28.15;17.02;;;3.30;99.90;;;;;;4981981;28;20026;-85
2022/01/05 01:47:56;;;;;;;18.85;13.00;;;3.40;99.90;;;;;;4981851;28;20030;-86
2022/01/05 01:50:21;;;;;;;27.35;15.15;;;3.40;99.90;;;;;;4997418;28;20037;-85
2022/01/05 01:52:47;;;;;;;19.90;13.32;;;3.40;99.90;;;;;;4981478;28;20041;-86
2022/01/05 01:55:13;;;;;;;15.85;10.25;;;3.30;99.90;;;;;;4981107;28;20497;-86
2022/01/05 01:57:42;;;;;;;14.50;9.13;;;3.30;99.90;;;;;;4981732;28;20066;-86
2022/01/05 02:00:08;;;;;;;11.75;7.10;;;3.30;99.90;;;;;;4997753;28;20075;-86
2022/01/05 02:02:44;;;;;;;9.10;6.15;;;3.40;99.90;;;;;;4999262;28;20113;-86
2022/01/05 02:05:10;;;;;;;5.80;4.53;;;3.30;99.90;;;;;;4981109;28;20037;-85
2022/01/05 02:07:36;;;;;;;5.55;4.10;;;3.30;99.90;;;;;;5015177;28;20034;-85
2022/01/05 02:10:05;;;;;;;4.93;3.47;;;3.30;99.90;;;;;;5015293;28;20390;-85
2022/01/05 02:12:31;;;;;;;4.95;3.60;;;3.30;99.90;;;;;;4981636;28;20057;-87
2022/01/05 02:14:57;;;;;;;4.45;3.00;;;3.40;99.90;;;;;;4997187;28;20505;-86
2022/01/05 02:17:30;;;;;;;4.47;3.53;;;3.30;99.90;;;;;;5015104;28;20049;-85
2022/01/05 02:19:56;;;;;;;6.75;3.83;;;3.30;99.90;;;;;;4997243;28;20038;-86
2022/01/05 02:22:22;;;;;;;5.47;4.05;;;3.30;99.90;;;;;;4997395;28;20033;-85
2022/01/05 02:24:48;;;;;;;180.25;55.67;;;3.40;99.90;;;;;;4980858;28;20088;-85
2022/01/05 02:27:17;;;;;;;8.18;4.70;;;3.40;99.90;;;;;;4981185;28;20061;-85
2022/01/05 02:29:45;;;;;;;7.88;3.58;;;3.40;99.90;;;;;;4997219;28;20389;-86
2022/01/05 02:32:11;;;;;;;6.75;4.00;;;3.40;99.90;;;;;;4997161;28;20076;-86
2022/01/05 02:34:36;;;;;;;7.05;4.45;;;3.40;99.90;;;;;;4997230;28;20038;-85
2022/01/05 02:37:02;;;;;;;9.18;4.85;;;3.40;99.90;;;;;;4997052;28;20029;-86
2022/01/05 02:39:28;;;;;;;12.45;6.57;;;3.50;99.90;;;;;;4997448;28;20061;-87
2022/01/05 02:41:54;;;;;;;11.18;6.50;;;3.40;99.90;;;;;;4997683;28;20030;-86
2022/01/05 02:44:19;;;;;;;11.93;5.97;;;3.50;99.90;;;;;;4980598;28;20042;-85
2022/01/05 02:46:45;;;;;;;9.32;5.60;;;3.50;99.90;;;;;;4980630;28;20128;-81
2022/01/05 02:49:11;;;;;;;7.95;4.65;;;3.40;99.90;;;;;;4996246;28;20080;-81
2022/01/05 02:51:37;;;;;;;5.78;3.80;;;3.40;99.90;;;;;;4996306;28;20129;-81
2022/01/05 02:54:04;;;;;;;3.55;2.20;;;3.30;99.90;;;;;;4979903;28;20049;-81
2022/01/05 02:56:29;;;;;;;3.80;2.28;;;3.30;99.90;;;;;;4996174;28;20041;-81
2022/01/05 02:58:55;;;;;;;3.53;2.15;;;3.30;99.90;;;;;;4980203;28;20397;-81
2022/01/05 03:01:21;;;;;;;3.78;2.70;;;3.20;99.90;;;;;;4979523;28;20033;-81
2022/01/05 03:03:46;;;;;;;8.05;3.75;;;3.20;99.90;;;;;;4979556;28;20034;-81
2022/01/05 03:06:12;;;;;;;7.15;3.70;;;3.20;99.90;;;;;;5013722;28;20756;-80
2022/01/05 03:08:38;;;;;;;6.72;3.17;;;3.20;99.90;;;;;;4996445;28;20041;-81
2022/01/05 03:11:04;;;;;;;7.53;4.38;;;3.30;99.90;;;;;;4979978;28;20033;-81
2022/01/05 03:13:31;;;;;;;45.10;9.02;;;3.20;99.90;;;;;;5028675;28;20037;-81
2022/01/05 03:15:57;;;;;;;107.07;17.67;;;3.30;99.90;;;;;;4979861;28;20041;-80
2022/01/05 03:18:23;;;;;;;36.42;16.25;;;3.50;99.90;;;;;;4979771;28;20030;-81
2022/01/05 03:20:49;;;;;;;36.65;16.13;;;3.50;99.90;;;;;;4995768;28;20030;-81
2022/01/05 03:23:15;;;;;;;34.83;14.77;;;3.60;99.90;;;;;;5013408;28;20037;-81
2022/01/05 03:25:42;;;;;;;28.55;13.32;;;3.60;99.90;;;;;;4996076;28;20034;-81
2022/01/05 03:28:08;;;;;;;109.00;40.22;;;3.60;99.90;;;;;;4979918;28;20029;-81
2022/01/05 03:30:34;;;;;;;20.63;10.85;;;3.60;99.90;;;;;;4979807;28;20042;-81
2022/01/05 03:35:27;;;;;;;20.70;10.75;;;3.60;99.90;;;;;;5013179;28;20034;-81
2022/01/05 03:37:53;;;;;;;29.33;11.43;;;3.60;99.90;;;;;;4979575;28;20363;-81
2022/01/05 03:40:19;;;;;;;24.75;12.77;;;3.60;99.90;;;;;;4979487;28;20037;-81
2022/01/05 03:42:45;;;;;;;27.80;12.30;;;3.60;99.90;;;;;;4979487;28;20036;-82
2022/01/05 03:45:10;;;;;;;38.60;12.52;;;3.60;99.90;;;;;;4979221;28;20034;-82
2022/01/05 03:47:37;;;;;;;29.40;13.05;;;3.60;99.90;;;;;;4995624;28;20386;-81
2022/01/05 03:50:03;;;;;;;31.02;13.70;;;3.60;99.90;;;;;;5013063;28;20030;-82
2022/01/05 03:52:29;;;;;;;22.02;12.68;;;3.60;99.90;;;;;;5013414;28;20388;-81
2022/01/05 03:54:54;;;;;;;27.98;14.52;;;3.60;99.90;;;;;;4979214;28;20034;-81
2022/01/05 03:57:20;;;;;;;27.38;14.48;;;3.60;99.90;;;;;;4995718;28;20117;-81
2022/01/05 03:59:46;;;;;;;25.48;12.50;;;3.60;99.90;;;;;;4995819;28;20406;-81
2022/01/05 04:02:12;;;;;;;23.95;11.43;;;3.60;99.90;;;;;;4995756;28;20487;-81
2022/01/05 04:04:37;;;;;;;19.60;10.23;;;3.60;99.90;;;;;;4995184;28;20701;-81
2022/01/05 04:07:03;;;;;;;5.45;3.33;;;3.50;99.90;;;;;;4979244;28;20029;-81
2022/01/05 04:09:30;;;;;;;6.50;3.50;;;3.10;99.90;;;;;;4979214;28;20041;-80
2022/01/05 04:11:56;;;;;;;4.72;3.28;;;2.70;99.90;;;;;;4995865;28;20026;-81
2022/01/05 04:14:21;;;;;;;4.97;3.28;;;2.60;99.90;;;;;;4998987;28;20044;-82
2022/01/05 04:16:47;;;;;;;5.05;3.65;;;2.30;99.90;;;;;;4982732;28;20034;-81
2022/01/05 04:19:13;;;;;;;5.38;3.30;;;2.00;99.90;;;;;;5016357;28;20044;-81
2022/01/05 04:21:39;;;;;;;5.53;3.67;;;1.80;99.90;;;;;;4982727;28;20033;-81
2022/01/05 04:24:05;;;;;;;5.57;3.90;;;1.60;99.90;;;;;;4982358;28;20130;-81
2022/01/05 04:26:30;;;;;;;5.72;3.80;;;1.40;99.90;;;;;;4999169;28;20038;-81
2022/01/05 04:28:56;;;;;;;6.20;4.10;;;1.30;99.90;;;;;;4998801;28;20490;-81
2022/01/05 04:31:22;;;;;;;6.13;4.35;;;1.30;99.90;;;;;;4982746;28;20132;-81
2022/01/05 04:33:47;;;;;;;6.72;5.05;;;1.30;99.90;;;;;;4998538;28;20477;-81
2022/01/05 04:36:13;;;;;;;8.82;5.18;;;1.30;99.90;;;;;;4999050;28;20022;-81
2022/01/05 04:38:45;;;;;;;8.52;5.30;;;1.20;99.90;;;;;;4982162;28;20025;-80
2022/01/05 04:41:10;;;;;;;10.95;5.93;;;1.20;99.90;;;;;;4982443;28;20022;-81
2022/01/05 04:43:36;;;;;;;8.88;5.10;;;1.10;99.90;;;;;;4982019;28;20029;-81
2022/01/05 04:46:02;;;;;;;7.68;5.53;;;1.10;99.90;;;;;;4998677;28;20373;-81
2022/01/05 04:48:29;;;;;;;8.07;5.47;;;1.00;99.90;;;;;;5016076;28;20105;-81
2022/01/05 04:50:55;;;;;;;6.82;5.10;;;1.00;99.90;;;;;;4982200;28;20117;-82
2022/01/05 04:53:20;;;;;;;8.40;5.38;;;0.90;99.90;;;;;;4998301;28;20100;-81
2022/01/05 04:55:46;;;;;;;8.93;5.55;;;0.80;99.90;;;;;;4981887;28;20034;-80
2022/01/05 04:58:12;;;;;;;8.20;5.75;;;0.80;99.90;;;;;;4982456;28;20097;-81
2022/01/05 05:00:38;;;;;;;10.48;7.03;;;0.80;99.90;;;;;;5015396;28;20103;-81
2022/01/05 05:03:04;;;;;;;11.55;6.15;;;0.80;99.90;;;;;;4998153;28;20037;-81
2022/01/05 05:05:30;;;;;;;9.68;6.78;;;0.90;99.90;;;;;;4997846;28;20030;-80
2022/01/05 05:07:58;;;;;;;9.40;6.60;;;0.90;99.90;;;;;;4998051;28;20464;-81
2022/01/05 05:10:24;;;;;;;9.43;5.50;;;0.80;99.90;;;;;;4998039;28;20030;-81
2022/01/05 05:12:50;;;;;;;10.07;5.00;;;0.70;99.90;;;;;;4998179;28;20034;-81
2022/01/05 05:15:15;;;;;;;9.35;5.13;;;0.60;99.90;;;;;;5030847;28;20627;-81
2022/01/05 05:17:41;;;;;;;14.57;5.35;;;0.50;99.90;;;;;;4998169;28;20477;-80
2022/01/05 05:20:07;;;;;;;10.85;5.65;;;0.50;99.90;;;;;;4982181;28;20042;-81
2022/01/05 05:22:35;;;;;;;12.32;5.63;;;0.50;99.90;;;;;;4998142;28;20030;-81
2022/01/05 05:25:01;;;;;;;8.35;5.72;;;0.50;99.90;;;;;;4980654;28;20038;-81
2022/01/05 05:27:27;;;;;;;14.07;6.28;;;0.40;99.90;;;;;;4982031;28;20046;-81
2022/01/05 05:29:52;;;;;;;14.23;7.10;;;0.40;99.90;;;;;;4981880;28;20048;-81
2022/01/05 05:32:18;;;;;;;11.38;6.63;;;0.40;99.90;;;;;;4998042;28;20041;-81
2022/01/05 05:34:44;;;;;;;18.08;7.38;;;0.40;99.90;;;;;;4997632;28;20026;-81
2022/01/05 05:37:09;;;;;;;16.52;6.03;;;0.40;99.90;;;;;;4981398;28;20065;-81
2022/01/05 05:39:35;;;;;;;11.10;6.55;;;0.40;99.90;;;;;;5013556;28;20490;-81
2022/01/05 05:42:01;;;;;;;15.10;6.93;;;0.50;99.90;;;;;;4981351;28;20672;-81
2022/01/05 05:44:26;;;;;;;11.75;6.47;;;0.40;99.90;;;;;;5013814;28;20040;-81
2022/01/05 05:46:52;;;;;;;14.20;6.22;;;0.40;99.90;;;;;;4981600;28;20065;-81
2022/01/05 05:49:18;;;;;;;21.08;6.85;;;0.40;99.90;;;;;;5015079;28;20470;-81
2022/01/05 05:51:44;;;;;;;10.95;6.65;;;0.40;99.90;;;;;;4981203;28;20485;-82
2022/01/05 05:54:11;;;;;;;14.90;5.82;;;0.30;99.90;;;;;;4997267;28;20113;-82
2022/01/05 05:56:37;;;;;;;20.67;6.53;;;0.30;99.90;;;;;;4980883;28;20033;-81
2022/01/05 05:59:03;;;;;;;16.90;6.90;;;0.30;99.90;;;;;;4997500;28;20037;-80
2022/01/05 06:01:29;;;;;;;16.88;6.13;;;0.30;99.90;;;;;;4980863;28;20030;-81
2022/01/05 06:03:55;;;;;;;14.05;5.53;;;0.30;99.90;;;;;;5029713;28;20045;-81
2022/01/05 06:06:20;;;;;;;12.57;3.72;;;0.30;99.90;;;;;;4980995;28;20061;-81
2022/01/05 06:08:46;;;;;;;16.92;5.55;;;0.30;99.90;;;;;;5014767;28;20030;-81
2022/01/05 06:11:12;;;;;;;14.52;3.75;;;0.30;99.90;;;;;;4997100;28;20048;-81
2022/01/05 06:13:38;;;;;;;14.95;4.68;;;0.20;99.90;;;;;;4996884;28;20040;-81
2022/01/05 06:16:04;;;;;;;15.45;5.05;;;0.30;99.90;;;;;;4996946;28;20374;-81
2022/01/05 06:18:30;;;;;;;14.10;4.40;;;0.30;99.90;;;;;;4996737;28;20049;-81
2022/01/05 06:20:55;;;;;;;15.55;4.57;;;0.20;99.90;;;;;;4980508;28;20034;-80
2022/01/05 06:23:21;;;;;;;16.05;5.50;;;0.20;99.90;;;;;;4996402;28;20061;-81
2022/01/05 06:25:47;;;;;;;17.05;5.38;;;0.30;99.90;;;;;;4980617;28;20079;-81
2022/01/05 06:28:12;;;;;;;16.15;6.13;;;0.30;99.90;;;;;;5012956;28;20034;-80
2022/01/05 06:30:39;;;;;;;17.85;4.97;;;0.30;99.90;;;;;;4996539;28;20033;-81
2022/01/05 06:33:05;;;;;;;13.60;5.25;;;0.30;99.90;;;;;;4996210;28;20064;-81
2022/01/05 06:35:31;;;;;;;18.58;6.13;;;0.20;99.90;;;;;;4995685;28;20030;-81
2022/01/05 06:37:56;;;;;;;17.60;5.55;;;0.30;99.90;;;;;;4979271;28;20053;-81
2022/01/05 06:40:23;;;;;;;18.42;5.60;;;0.20;99.90;;;;;;4996201;28;20026;-81
2022/01/05 06:42:48;;;;;;;17.23;5.55;;;0.20;99.90;;;;;;4979892;28;20478;-81
2022/01/05 06:45:23;;;;;;;11.88;5.72;;;0.20;99.90;;;;;;4996034;28;20041;-81
2022/01/05 06:47:49;;;;;;;15.70;5.90;;;0.20;99.90;;;;;;4996178;28;20037;-80
2022/01/05 06:50:14;;;;;;;129.50;39.72;;;0.30;99.90;;;;;;4980047;28;20049;-81
2022/01/05 06:52:40;;;;;;;17.40;6.78;;;0.20;99.90;;;;;;5013752;28;20029;-81
2022/01/05 06:55:09;;;;;;;21.27;7.25;;;0.30;99.90;;;;;;4979564;28;20042;-81
2022/01/05 06:57:36;;;;;;;16.10;6.13;;;0.20;99.90;;;;;;4979701;28;20034;-81
2022/01/05 07:00:15;;;;;;;26.88;7.22;;;0.20;99.90;;;;;;4979871;28;20073;-81
2022/01/05 07:02:41;;;;;;;17.77;6.28;;;0.20;99.90;;;;;;4979710;28;20032;-81
2022/01/05 07:05:08;;;;;;;20.65;7.55;;;0.30;99.90;;;;;;4979760;28;20037;-81
2022/01/05 07:07:34;;;;;;;32.78;11.18;;;0.20;99.90;;;;;;4996184;28;20066;-81
2022/01/05 07:10:00;;;;;;;21.58;8.55;;;0.20;99.90;;;;;;4979940;28;20030;-82
2022/01/05 07:12:26;;;;;;;16.70;6.47;;;0.30;99.90;;;;;;4995918;28;20636;-82
2022/01/05 07:14:52;;;;;;;15.43;7.28;;;0.30;99.90;;;;;;4994563;28;20037;-82
2022/01/05 07:17:18;;;;;;;16.10;6.50;;;0.30;99.90;;;;;;4995665;28;20029;-82
2022/01/05 07:19:44;;;;;;;17.05;6.32;;;0.30;99.90;;;;;;4979414;28;20066;-82
2022/01/05 07:22:10;;;;;;;15.68;6.40;;;0.20;99.90;;;;;;4979390;28;20021;-83
2022/01/05 07:24:36;;;;;;;13.85;5.75;;;0.20;99.90;;;;;;4978977;28;20403;-84
2022/01/05 07:27:01;;;;;;;16.77;6.93;;;0.20;99.90;;;;;;4979162;28;20092;-86
2022/01/05 07:29:27;;;;;;;13.13;6.10;;;0.20;99.90;;;;;;4981317;28;20048;-86
2022/01/05 07:31:53;;;;;;;11.45;6.07;;;0.10;99.90;;;;;;4979972;28;20041;-84
2022/01/05 07:34:19;;;;;;;15.02;5.15;;;0.10;99.90;;;;;;4980964;28;20042;-84
2022/01/05 07:36:45;;;;;;;12.98;4.95;;;0.00;99.90;;;;;;4979768;28;20478;-85
2022/01/05 07:39:10;;;;;;;13.00;4.95;;;0.00;99.90;;;;;;4995771;28;20117;-85
2022/01/05 07:41:37;;;;;;;11.98;4.78;;;-0.10;99.90;;;;;;4995767;28;20053;-85
2022/01/05 07:44:04;;;;;;;15.20;4.18;;;-0.10;99.90;;;;;;4995778;28;20038;-85
2022/01/05 07:46:31;;;;;;;13.20;4.32;;;-0.20;99.90;;;;;;5013763;28;20038;-84
2022/01/05 07:48:57;;;;;;;28.20;7.28;;;-0.10;99.90;;;;;;4999705;28;20034;-86
2022/01/05 07:51:23;;;;;;;21.30;3.45;;;-0.20;99.90;;;;;;4985512;28;20489;-85
2022/01/05 07:53:48;;;;;;;11.88;3.17;;;-0.20;99.90;;;;;;4999381;28;20033;-84
2022/01/05 07:56:14;;;;;;;14.20;4.10;;;-0.20;99.90;;;;;;5017284;28;20600;-85
2022/01/05 07:58:40;;;;;;;13.27;3.92;;;-0.20;99.90;;;;;;4983455;28;20470;-85
2022/01/05 08:01:06;;;;;;;9.57;3.80;;;-0.30;99.90;;;;;;5015494;28;20170;-85
2022/01/05 08:03:33;;;;;;;14.02;3.65;;;-0.30;99.90;;;;;;4999200;28;20029;-85
2022/01/05 08:06:04;;;;;;;10.02;4.07;;;-0.40;99.90;;;;;;4982948;28;20069;-85
2022/01/05 08:08:29;;;;;;;15.05;3.78;;;-0.40;99.90;;;;;;4999281;28;20029;-84
2022/01/05 08:10:56;;;;;;;12.32;3.65;;;-0.40;99.90;;;;;;4984848;28;20119;-85
2022/01/05 08:13:24;;;;;;;18.67;3.00;;;-0.30;99.90;;;;;;4999578;28;20477;-85
2022/01/05 08:15:54;;;;;;;15.77;3.25;;;-0.40;99.90;;;;;;4982974;28;20030;-84
2022/01/05 08:18:20;;;;;;;10.07;2.88;;;-0.50;99.90;;;;;;4982870;28;20486;-85
2022/01/05 08:20:47;;;;;;;21.77;3.45;;;-0.60;99.90;;;;;;4983078;28;20465;-85
2022/01/05 08:23:17;;;;;;;10.48;3.05;;;-0.60;99.90;;;;;;4998980;28;20033;-85
2022/01/05 08:25:43;;;;;;;16.55;3.30;;;-0.70;99.90;;;;;;4982521;28;20057;-85
2022/01/05 08:28:11;;;;;;;14.13;4.22;;;-0.60;99.90;;;;;;4983044;28;20065;-84
2022/01/05 08:30:38;;;;;;;11.82;5.90;;;-0.40;99.90;;;;;;4998373;28;20040;-84
2022/01/05 08:33:04;;;;;;;11.20;3.05;;;-0.40;99.90;;;;;;4982592;28;20072;-85
2022/01/05 08:35:31;;;;;;;6.10;3.67;;;-0.50;99.90;;;;;;4998298;28;20541;-84
2022/01/05 08:37:59;;;;;;;15.32;3.33;;;-0.50;99.90;;;;;;4998187;28;20637;-84
2022/01/05 08:40:25;;;;;;;10.27;4.50;;;-0.40;99.90;;;;;;4998396;28;20401;-85
2022/01/05 08:42:55;;;;;;;11.07;3.95;;;-0.30;99.90;;;;;;4982097;28;20045;-85
2022/01/05 08:45:22;;;;;;;9.23;3.20;;;-0.20;99.90;;;;;;5015921;28;20548;-84
2022/01/05 08:47:49;;;;;;;12.07;3.78;;;-0.20;99.90;;;;;;4982188;28;20041;-85
2022/01/05 08:50:21;;;;;;;33.92;11.52;;;-0.10;99.90;;;;;;4982201;28;20034;-84
2022/01/05 08:52:48;;;;;;;12.52;3.60;;;-0.10;99.90;;;;;;4982550;28;20041;-84
2022/01/05 08:55:15;;;;;;;9.57;3.47;;;0.00;99.90;;;;;;5015792;28;20029;-84
2022/01/05 08:57:42;;;;;;;17.98;3.38;;;0.00;99.90;;;;;;4982360;28;20113;-84
2022/01/05 09:00:09;;;;;;;13.77;3.35;;;0.00;99.90;;;;;;4997115;28;20030;-84
2022/01/05 09:02:36;;;;;;;9.93;3.38;;;0.00;99.90;;;;;;4998620;28;20025;-85
2022/01/05 09:05:03;;;;;;;7.97;3.28;;;0.10;99.90;;;;;;4982771;28;20034;-84
2022/01/05 09:07:29;;;;;;;11.20;2.75;;;0.10;99.90;;;;;;4998513;28;20446;-84
2022/01/05 09:09:54;;;;;;;11.85;3.20;;;0.00;99.90;;;;;;4998523;28;20034;-84
2022/01/05 09:12:20;;;;;;;12.15;2.92;;;0.00;99.90;;;;;;4981975;28;20037;-85
2022/01/05 09:14:46;;;;;;;15.43;3.53;;;0.00;99.90;;;;;;4981802;28;20125;-85
2022/01/05 09:17:11;;;;;;;14.35;3.40;;;0.00;99.90;;;;;;4981898;28;20493;-85
2022/01/05 09:19:37;;;;;;;16.92;4.25;;;0.00;99.90;;;;;;4982426;28;20466;-84
2022/01/05 09:22:04;;;;;;;16.02;3.60;;;0.10;99.90;;;;;;4998074;28;20077;-85
2022/01/05 09:24:29;;;;;;;12.57;3.17;;;0.10;99.90;;;;;;5015859;28;20508;-85
2022/01/05 09:26:57;;;;;;;11.95;2.80;;;0.00;99.90;;;;;;4998051;28;20022;-85
2022/01/05 09:29:23;;;;;;;26.67;4.05;;;0.00;99.90;;;;;;4997939;28;20496;-85
2022/01/05 09:31:50;;;;;;;17.08;3.75;;;-0.10;99.90;;;;;;4982019;28;20030;-85
2022/01/05 09:34:16;;;;;;;10.95;3.28;;;-0.10;99.90;;;;;;4997914;28;20482;-85
2022/01/05 09:36:47;;;;;;;15.98;3.95;;;-0.10;99.90;;;;;;5000185;28;20045;-85
2022/01/05 09:41:59;;;;;;;11.52;4.60;;;0.20;99.90;;;;;;5030867;28;20748;-85
2022/01/05 09:44:41;;;;;;;17.23;3.33;;;0.30;99.90;;;;;;4997745;28;20104;-85
2022/01/05 09:47:38;;;;;;;10.32;3.85;;;0.30;99.90;;;;;;4981549;28;20175;-84
2022/01/05 09:50:10;;;;;;;19.05;3.03;;;0.10;99.90;;;;;;5015215;28;20107;-84
2022/01/05 09:52:42;;;;;;;13.05;2.95;;;0.10;99.90;;;;;;4997656;28;20037;-84
2022/01/05 09:55:08;;;;;;;14.48;3.55;;;0.00;99.90;;;;;;4983085;28;20038;-85
2022/01/05 09:57:35;;;;;;;21.27;4.20;;;0.10;99.90;;;;;;4981695;28;20042;-84
2022/01/05 10:00:01;;;;;;;12.15;3.30;;;0.10;99.90;;;;;;4997535;28;20112;-85
2022/01/05 10:02:28;;;;;;;14.18;3.08;;;0.10;99.90;;;;;;4981525;28;20164;-84
2022/01/05 10:04:54;;;;;;;13.50;3.58;;;0.10;99.90;;;;;;4984474;28;20044;-85
2022/01/05 10:07:20;;;;;;;18.60;4.28;;;0.10;99.90;;;;;;5013697;28;20037;-84
2022/01/05 10:09:46;;;;;;;8.80;3.03;;;0.10;99.90;;;;;;5014660;28;20482;-84
2022/01/05 10:12:13;;;;;;;15.52;3.65;;;0.20;99.90;;;;;;4981151;28;20430;-84
2022/01/05 10:14:41;;;;;;;21.27;4.35;;;0.30;99.90;;;;;;4980829;28;20029;-84
2022/01/05 10:17:08;;;;;;;15.30;4.75;;;0.30;99.90;;;;;;4981164;28;20218;-84
2022/01/05 10:19:35;;;;;;;12.35;3.05;;;0.30;99.90;;;;;;4997833;28;20129;-83
2022/01/05 10:22:02;;;;;;;16.35;3.88;;;0.20;99.90;;;;;;4981363;28;20120;-83
2022/01/05 10:24:45;;;;;;;13.18;3.53;;;0.30;99.90;;;;;;4997680;28;20029;-84
2022/01/05 10:27:19;;;;;;;20.85;6.40;;;0.40;99.90;;;;;;4981173;28;20034;-85
2022/01/05 10:29:56;;;;;;;28.60;8.52;;;0.40;99.90;;;;;;4997468;28;20033;-84
2022/01/05 10:32:29;;;;;;;19.73;3.13;;;0.40;99.90;;;;;;4981074;28;20504;-85
2022/01/05 10:35:25;;;;;;;18.52;4.03;;;0.50;99.90;;;;;;4980587;28;20048;-85
2022/01/05 10:38:03;;;;;;;16.70;3.70;;;0.40;99.90;;;;;;4974405;28;20038;-84
2022/01/05 10:40:37;;;;;;;22.85;5.68;;;0.30;99.90;;;;;;4997130;28;20032;-85
2022/01/05 10:43:11;;;;;;;17.42;3.67;;;0.40;99.90;;;;;;4996380;28;20033;-84
2022/01/05 10:45:42;;;;;;;16.60;4.35;;;0.40;99.90;;;;;;4980374;28;20120;-85
2022/01/05 10:48:20;;;;;;;9.77;3.08;;;0.40;99.90;;;;;;4980301;28;20044;-85
2022/01/05 10:50:48;;;;;;;19.33;3.88;;;0.30;99.90;;;;;;4995931;28;20082;-84
2022/01/05 10:53:18;;;;;;;14.52;3.30;;;0.30;99.90;;;;;;5013454;28;20029;-84
2022/01/05 10:55:45;;;;;;;16.63;4.55;;;0.30;99.90;;;;;;4979714;28;20030;-85
2022/01/05 10:58:15;;;;;;;13.43;3.70;;;0.40;99.90;;;;;;4979904;28;20184;-84
2022/01/05 11:00:54;;;;;;;17.73;4.95;;;0.40;99.90;;;;;;4980227;28;20029;-85
2022/01/05 11:03:25;;;;;;;21.10;5.43;;;0.40;99.90;;;;;;4982212;28;20489;-85
2022/01/05 11:06:11;;;;;;;16.92;4.25;;;0.40;99.90;;;;;;4980259;28;20030;-84
2022/01/05 11:08:52;;;;;;;23.30;3.50;;;0.40;99.90;;;;;;4996319;28;20036;-85
2022/01/05 11:11:49;;;;;;;17.13;4.30;;;0.40;99.90;;;;;;4996060;28;20038;-85
2022/01/05 11:14:40;;;;;;;18.48;3.65;;;0.40;99.90;;;;;;4964607;28;20038;-84
2022/01/05 11:17:06;;;;;;;19.20;5.03;;;0.40;99.90;;;;;;4996336;28;20053;-85
2022/01/05 11:19:35;;;;;;;13.23;3.83;;;0.40;99.90;;;;;;4980213;28;20141;-84
2022/01/05 11:22:15;;;;;;;18.45;5.30;;;0.40;99.90;;;;;;4979317;28;20022;-85
2022/01/05 11:24:48;;;;;;;12.65;4.18;;;0.40;99.90;;;;;;4996066;28;20551;-85
2022/01/05 11:27:22;;;;;;;20.35;3.42;;;0.40;99.90;;;;;;5013380;28;20034;-85
2022/01/05 11:29:48;;;;;;;11.95;4.07;;;0.30;99.90;;;;;;4996563;28;20033;-85
2022/01/05 11:32:20;;;;;;;25.17;4.80;;;0.40;99.90;;;;;;4996009;28;20033;-85
2022/01/05 11:34:46;;;;;;;10.95;3.25;;;0.40;99.90;;;;;;4980030;28;20069;-86
2022/01/05 11:37:13;;;;;;;13.38;3.75;;;0.40;99.90;;;;;;4980010;28;20041;-86
2022/01/05 11:39:47;;;;;;;18.33;4.25;;;0.40;99.90;;;;;;4982497;28;20041;-85
2022/01/05 11:42:16;;;;;;;14.68;4.20;;;0.50;99.90;;;;;;4982120;28;20148;-85
2022/01/05 11:44:45;;;;;;;16.67;4.43;;;0.50;99.90;;;;;;4996439;28;20026;-85
2022/01/05 11:47:39;;;;;;;21.55;7.55;;;0.50;99.90;;;;;;4996123;28;20034;-84
2022/01/05 11:50:14;;;;;;;16.00;5.35;;;0.50;99.90;;;;;;4979691;28;20041;-84
2022/01/05 11:53:00;;;;;;;22.52;5.90;;;0.50;99.90;;;;;;4996507;28;20034;-85
2022/01/05 11:55:28;;;;;;;21.85;5.22;;;0.50;99.90;;;;;;4995604;28;20065;-85
2022/01/05 11:58:19;;;;;;;24.27;5.93;;;0.50;99.90;;;;;;4980106;28;20080;-85
2022/01/05 12:00:47;;;;;;;17.17;5.07;;;0.50;99.90;;;;;;4979859;28;20021;-85
2022/01/05 12:03:13;;;;;;;9.82;3.28;;;0.50;99.90;;;;;;4995764;28;20064;-84
2022/01/05 12:06:07;;;;;;;25.05;8.38;;;0.50;99.90;;;;;;4995858;28;20418;-85
2022/01/05 12:08:45;;;;;;;15.98;4.07;;;0.40;99.90;;;;;;4995804;28;20033;-86
2022/01/05 12:11:38;;;;;;;14.05;4.93;;;0.40;99.90;;;;;;4979407;28;20136;-84
2022/01/05 12:14:21;;;;;;;17.70;5.28;;;0.40;99.90;;;;;;4995459;28;20030;-85
2022/01/05 12:16:58;;;;;;;22.55;5.40;;;0.40;99.90;;;;;;4979629;28;20038;-86
2022/01/05 12:19:25;;;;;;;22.65;3.97;;;0.40;99.90;;;;;;4979505;28;20034;-85
2022/01/05 12:21:53;;;;;;;20.13;4.10;;;0.40;99.90;;;;;;4995855;28;20050;-85
2022/01/05 12:24:19;;;;;;;24.45;4.88;;;0.40;99.90;;;;;;4975287;28;20042;-85
2022/01/05 12:27:25;;;;;;;14.13;4.65;;;0.40;99.90;;;;;;4995598;28;20051;-84
2022/01/05 12:29:51;;;;;;;13.70;5.40;;;0.40;99.90;;;;;;4979492;28;20038;-84
2022/01/05 12:32:35;;;;;;;20.23;6.65;;;0.40;99.90;;;;;;4979280;28;20030;-85
2022/01/05 12:35:23;;;;;;;19.27;4.00;;;0.40;99.90;;;;;;4982933;28;20073;-85
2022/01/05 12:37:54;;;;;;;17.08;4.60;;;0.40;99.90;;;;;;4999196;28;20026;-85
2022/01/05 12:40:46;;;;;;;17.15;4.60;;;0.40;99.90;;;;;;4984060;28;20034;-85
2022/01/05 12:43:16;;;;;;;24.42;5.20;;;0.50;99.90;;;;;;4979415;28;20063;-84
2022/01/05 12:45:51;;;;;;;16.83;4.85;;;0.40;99.90;;;;;;4982796;28;20038;-84
2022/01/05 12:48:32;;;;;;;53.75;13.63;;;0.40;99.90;;;;;;4982657;28;20034;-85
2022/01/05 12:51:16;;;;;;;14.20;4.15;;;0.40;99.90;;;;;;4984713;28;20045;-87
2022/01/05 12:54:18;;;;;;;26.95;5.57;;;0.40;99.90;;;;;;4998734;28;20096;-87
2022/01/05 12:56:56;;;;;;;18.63;5.05;;;0.40;99.90;;;;;;4999395;28;20500;-86